Time;durP1;ratioP1;P1;durP2;ratioP2;P2;SDS_P1;SDS_P2;PMS_P1;PMS_P2;Temp;Humidity;BMP_temperature;BMP_pressure;BME280_temperature;BME280_humidity;BME280_pressure;Samples;Min_cycle;Max_cycle;Signal;HPM_P1;HPM_P2
2022/10/29 00:00:52;;;;;;;;;6.80;6.80;;;;;;;;5188767;28;8771;-79
2022/10/29 00:03:42;;;;;;;;;8.40;8.40;;;;;;;;5204784;28;8808;-77
2022/10/29 00:06:14;;;;;;;;;7.40;7.40;;;;;;;;5190686;28;8827;-78
2022/10/29 00:08:45;;;;;;;;;7.20;7.20;;;;;;;;5177683;28;8803;-78
2022/10/29 00:11:17;;;;;;;;;6.00;6.00;;;;;;;;5183629;28;8809;-77
2022/10/29 00:14:07;;;;;;;;;6.40;6.40;;;;;;;;5201085;28;8904;-77
2022/10/29 00:16:38;;;;;;;;;6.40;6.40;;;;;;;;5184469;28;8825;-78
2022/10/29 00:19:28;;;;;;;;;10.40;10.40;;;;;;;;5187072;28;8861;-78
2022/10/29 00:21:59;;;;;;;;;6.60;6.60;;;;;;;;5210645;28;8807;-77
2022/10/29 00:24:29;;;;;;;;;10.00;8.75;;;;;;;;5216287;28;8806;-77
2022/10/29 00:27:00;;;;;;;;;3.50;3.50;;;;;;;;5178236;28;11591;-77
2022/10/29 00:29:32;;;;;;;;;5.20;5.20;;;;;;;;5200180;28;9077;-78
2022/10/29 00:32:03;;;;;;;;;3.00;3.00;;;;;;;;5203425;28;8812;-77
2022/10/29 00:34:34;;;;;;;;;4.80;4.80;;;;;;;;5201341;28;8785;-76
2022/10/29 00:37:05;;;;;;;;;2.20;2.20;;;;;;;;5201072;28;8804;-77
2022/10/29 00:39:36;;;;;;;;;5.60;5.60;;;;;;;;5199897;28;8798;-77
2022/10/29 00:42:26;;;;;;;;;6.20;6.20;;;;;;;;5183996;28;8894;-77
2022/10/29 00:44:57;;;;;;;;;7.40;6.60;;;;;;;;5167001;28;8812;-77
2022/10/29 00:47:30;;;;;;;;;17.60;14.80;;;;;;;;5165525;28;8776;-78
2022/10/29 00:50:04;;;;;;;;;8.40;7.00;;;;;;;;5164823;28;8923;-78
2022/10/29 00:52:38;;;;;;;;;10.20;9.40;;;;;;;;5167403;28;9503;-77
2022/10/29 00:55:28;;;;;;;;;5.80;5.00;;;;;;;;5200725;28;8797;-77
2022/10/29 00:57:59;;;;;;;;;5.40;5.40;;;;;;;;5182945;28;8805;-77
2022/10/29 01:00:30;;;;;;;;;6.40;6.40;;;;;;;;5181970;28;8780;-77
2022/10/29 01:03:02;;;;;;;;;5.20;5.20;;;;;;;;5164793;28;8785;-72
2022/10/29 01:05:34;;;;;;;;;2.60;2.60;;;;;;;;5186926;28;8765;-73
2022/10/29 01:08:23;;;;;;;;;12.00;12.00;;;;;;;;5190496;28;8868;-73
2022/10/29 01:10:54;;;;;;;;;14.20;13.80;;;;;;;;5170413;28;8797;-73
2022/10/29 01:13:44;;;;;;;;;7.00;7.00;;;;;;;;5202773;28;8828;-73
2022/10/29 01:16:15;;;;;;;;;0.40;0.40;;;;;;;;5185256;28;8817;-71
2022/10/29 01:19:09;;;;;;;;;4.80;4.80;;;;;;;;5168445;28;8780;-72
2022/10/29 01:22:04;;;;;;;;;6.80;6.80;;;;;;;;5196497;28;8791;-72
2022/10/29 01:24:51;;;;;;;;;6.60;6.60;;;;;;;;5186916;28;8782;-73
2022/10/29 01:27:52;;;;;;;;;8.00;8.00;;;;;;;;5188882;28;8793;-73
2022/10/29 01:30:23;;;;;;;;;7.00;7.00;;;;;;;;5184090;28;8784;-73
2022/10/29 01:33:16;;;;;;;;;7.80;7.80;;;;;;;;5186141;28;8811;-74
2022/10/29 01:36:05;;;;;;;;;4.20;3.80;;;;;;;;5190028;28;8772;-74
2022/10/29 01:38:39;;;;;;;;;5.00;5.00;;;;;;;;5202042;28;8913;-75
2022/10/29 01:41:13;;;;;;;;;6.00;6.00;;;;;;;;5168272;28;8922;-76
2022/10/29 01:43:48;;;;;;;;;7.00;7.00;;;;;;;;5169504;28;8869;-75
2022/10/29 01:46:25;;;;;;;;;7.00;7.00;;;;;;;;5186145;28;8877;-75
2022/10/29 01:49:00;;;;;;;;;6.20;6.20;;;;;;;;5168579;28;8837;-79
2022/10/29 01:51:33;;;;;;;;;9.80;9.80;;;;;;;;5184747;28;8869;-78
2022/10/29 01:54:23;;;;;;;;;5.00;5.00;;;;;;;;5186894;28;8904;-81
2022/10/29 01:56:54;;;;;;;;;5.00;5.00;;;;;;;;5184923;28;9631;-80
2022/10/29 01:59:28;;;;;;;;;5.20;5.20;;;;;;;;5203784;28;8765;-80
2022/10/29 02:02:11;;;;;;;;;5.00;5.00;;;;;;;;5205923;28;8791;-80
2022/10/29 02:05:01;;;;;;;;;4.20;4.20;;;;;;;;5189186;28;8779;-80
2022/10/29 02:07:42;;;;;;;;;7.00;7.00;;;;;;;;5206439;28;8790;-76
2022/10/29 02:10:34;;;;;;;;;5.00;5.00;;;;;;;;5190634;28;8817;-76
2022/10/29 02:13:08;;;;;;;;;7.40;7.40;;;;;;;;5206800;28;8802;-79
2022/10/29 02:15:42;;;;;;;;;4.60;4.60;;;;;;;;5206744;28;8790;-78
2022/10/29 02:18:14;;;;;;;;;4.60;3.00;;;;;;;;5190269;28;8869;-77
2022/10/29 02:20:46;;;;;;;;;4.60;4.60;;;;;;;;5188731;28;8896;-76
2022/10/29 02:23:17;;;;;;;;;2.00;1.20;;;;;;;;5190611;28;9492;-75
2022/10/29 02:25:49;;;;;;;;;6.60;6.20;;;;;;;;5190273;28;8831;-76
2022/10/29 02:28:20;;;;;;;;;6.20;6.20;;;;;;;;5203977;28;8778;-76
2022/10/29 02:31:09;;;;;;;;;6.20;6.20;;;;;;;;5188429;28;8797;-80
2022/10/29 02:33:40;;;;;;;;;9.20;9.20;;;;;;;;5201953;28;8828;-79
2022/10/29 02:36:11;;;;;;;;;6.80;6.60;;;;;;;;5185882;28;8777;-79
2022/10/29 02:38:43;;;;;;;;;7.00;7.00;;;;;;;;5170242;28;8957;-75
2022/10/29 02:41:14;;;;;;;;;9.80;9.80;;;;;;;;5174089;28;8787;-77
2022/10/29 02:44:03;;;;;;;;;6.40;6.40;;;;;;;;5222833;28;9548;-76
2022/10/29 02:46:38;;;;;;;;;4.20;4.20;;;;;;;;5194807;28;8796;-77
2022/10/29 02:49:27;;;;;;;;;6.00;6.00;;;;;;;;5181850;28;8811;-73
2022/10/29 02:51:58;;;;;;;;;5.80;5.40;;;;;;;;5181729;28;8860;-73
2022/10/29 02:54:30;;;;;;;;;6.80;6.60;;;;;;;;5181407;28;8947;-74
2022/10/29 02:57:01;;;;;;;;;5.80;5.80;;;;;;;;5148804;28;8946;-73
2022/10/29 02:59:32;;;;;;;;;3.00;3.00;;;;;;;;5165204;28;8950;-73
2022/10/29 03:02:04;;;;;;;;;5.00;4.20;;;;;;;;5198845;28;8804;-74
2022/10/29 03:04:38;;;;;;;;;6.40;6.20;;;;;;;;5220610;27;9461;-75
2022/10/29 03:07:09;;;;;;;;;5.40;5.40;;;;;;;;5205812;28;8862;-75
2022/10/29 03:09:40;;;;;;;;;5.00;5.00;;;;;;;;5222456;28;8901;-76
2022/10/29 03:12:11;;;;;;;;;5.80;5.80;;;;;;;;5210206;28;8785;-82
2022/10/29 03:14:42;;;;;;;;;6.20;6.20;;;;;;;;5206488;28;8778;-85
2022/10/29 03:17:13;;;;;;;;;5.60;5.60;;;;;;;;5194269;28;8861;-85
2022/10/29 03:19:45;;;;;;;;;3.00;3.00;;;;;;;;5181598;28;8788;-83
2022/10/29 03:22:16;;;;;;;;;4.80;4.80;;;;;;;;5164870;28;8811;-81
2022/10/29 03:24:47;;;;;;;;;3.00;3.00;;;;;;;;5169093;28;8822;-82
2022/10/29 03:27:18;;;;;;;;;4.60;4.60;;;;;;;;5222694;28;8909;-81
2022/10/29 03:29:49;;;;;;;;;2.60;2.60;;;;;;;;5189280;28;8921;-78
2022/10/29 03:32:39;;;;;;;;;7.00;7.00;;;;;;;;5208273;28;8848;-78
2022/10/29 03:35:11;;;;;;;;;6.20;6.20;;;;;;;;5205482;28;8806;-78
2022/10/29 03:37:42;;;;;;;;;6.00;6.00;;;;;;;;5205468;28;8879;-78
2022/10/29 03:40:13;;;;;;;;;6.00;6.00;;;;;;;;5222622;28;8807;-78
2022/10/29 03:42:45;;;;;;;;;6.40;6.40;;;;;;;;5222262;28;8771;-78
2022/10/29 03:45:35;;;;;;;;;5.00;5.00;;;;;;;;5182912;28;8788;-81
2022/10/29 03:48:07;;;;;;;;;7.60;7.60;;;;;;;;5149373;28;8799;-85
2022/10/29 03:50:40;;;;;;;;;6.40;6.40;;;;;;;;5149969;28;8865;-83
2022/10/29 03:53:12;;;;;;;;;10.20;10.20;;;;;;;;5150593;28;8804;-84
2022/10/29 03:55:45;;;;;;;;;5.00;5.00;;;;;;;;5158416;28;8789;-85
2022/10/29 03:58:18;;;;;;;;;6.00;6.00;;;;;;;;5188470;28;8841;-83
2022/10/29 04:00:54;;;;;;;;;47.80;42.80;;;;;;;;5204977;28;8781;-84
2022/10/29 04:03:27;;;;;;;;;12.80;12.80;;;;;;;;5185262;28;8898;-84
2022/10/29 04:06:00;;;;;;;;;12.00;11.40;;;;;;;;5170282;28;8812;-82
2022/10/29 04:08:33;;;;;;;;;9.80;9.80;;;;;;;;5166943;28;8789;-83
2022/10/29 04:11:08;;;;;;;;;10.00;10.00;;;;;;;;5183570;28;8886;-85
2022/10/29 04:13:41;;;;;;;;;10.60;10.60;;;;;;;;5168302;28;8924;-82
2022/10/29 04:16:13;;;;;;;;;14.20;14.20;;;;;;;;5180030;28;8997;-81
2022/10/29 04:18:49;;;;;;;;;12.80;12.60;;;;;;;;5223952;28;8920;-82
2022/10/29 04:21:21;;;;;;;;;11.20;11.20;;;;;;;;5195289;28;8805;-83
2022/10/29 04:23:54;;;;;;;;;5.60;5.60;;;;;;;;5171322;28;8839;-82
2022/10/29 04:26:27;;;;;;;;;8.80;8.80;;;;;;;;5174583;28;8812;-81
2022/10/29 04:29:00;;;;;;;;;6.00;6.00;;;;;;;;5163908;28;8802;-80
2022/10/29 04:31:32;;;;;;;;;8.80;8.80;;;;;;;;5147668;28;8799;-82
2022/10/29 04:34:05;;;;;;;;;6.20;6.20;;;;;;;;5147624;28;9519;-80
2022/10/29 04:36:37;;;;;;;;;7.80;7.00;;;;;;;;5163382;28;8856;-79
2022/10/29 04:39:14;;;;;;;;;8.40;8.40;;;;;;;;5195514;28;8800;-80
2022/10/29 04:41:49;;;;;;;;;8.80;7.60;;;;;;;;5187999;28;8781;-78
2022/10/29 04:44:23;;;;;;;;;6.60;6.60;;;;;;;;5171864;28;8812;-82
2022/10/29 04:47:15;;;;;;;;;4.60;4.60;;;;;;;;5190047;28;8828;-82
2022/10/29 04:49:47;;;;;;;;;9.00;9.00;;;;;;;;5171334;28;8777;-78
2022/10/29 04:52:20;;;;;;;;;7.40;7.40;;;;;;;;5187642;28;8789;-81
2022/10/29 04:54:53;;;;;;;;;12.40;12.40;;;;;;;;5204634;28;8798;-81
2022/10/29 04:57:26;;;;;;;;;7.40;7.40;;;;;;;;5207601;28;8802;-82
2022/10/29 05:00:17;;;;;;;;;6.80;6.80;;;;;;;;5183425;28;8816;-80
2022/10/29 05:03:09;;;;;;;;;6.80;6.80;;;;;;;;5169577;28;8799;-74
2022/10/29 05:05:41;;;;;;;;;20.60;20.00;;;;;;;;5183805;28;8803;-84
2022/10/29 05:08:14;;;;;;;;;10.00;10.00;;;;;;;;5183800;28;8796;-81
2022/10/29 05:10:46;;;;;;;;;7.80;7.60;;;;;;;;5199570;28;8776;-79
2022/10/29 05:13:19;;;;;;;;;11.40;11.00;;;;;;;;5188315;28;9507;-82
2022/10/29 05:15:51;;;;;;;;;10.00;10.00;;;;;;;;5170568;28;8923;-74
2022/10/29 05:18:23;;;;;;;;;14.60;14.60;;;;;;;;5182949;28;8843;-76
2022/10/29 05:20:54;;;;;;;;;11.40;11.40;;;;;;;;5182863;28;8799;-74
2022/10/29 05:23:25;;;;;;;;;9.00;9.00;;;;;;;;5166685;28;9545;-72
2022/10/29 05:25:57;;;;;;;;;11.80;11.80;;;;;;;;5166206;28;9664;-71
2022/10/29 05:28:50;;;;;;;;;13.60;13.60;;;;;;;;5182936;28;8796;-72
2022/10/29 05:31:21;;;;;;;;;16.80;16.80;;;;;;;;5182708;28;8772;-73
2022/10/29 05:33:52;;;;;;;;;14.60;14.60;;;;;;;;5176089;28;8821;-75
2022/10/29 05:36:23;;;;;;;;;15.20;14.80;;;;;;;;5224629;27;8774;-78
2022/10/29 05:38:55;;;;;;;;;62.60;47.60;;;;;;;;5192813;28;8812;-70
2022/10/29 05:41:26;;;;;;;;;10.20;9.80;;;;;;;;5211319;28;8778;-71
2022/10/29 05:43:57;;;;;;;;;12.80;12.60;;;;;;;;5209486;28;9567;-72
2022/10/29 05:46:28;;;;;;;;;13.20;12.60;;;;;;;;5168509;28;8797;-71
2022/10/29 05:49:00;;;;;;;;;7.00;7.00;;;;;;;;5167939;28;8789;-72
2022/10/29 05:51:31;;;;;;;;;10.60;10.60;;;;;;;;5171446;28;8773;-71
2022/10/29 05:54:03;;;;;;;;;9.20;9.20;;;;;;;;5203964;28;8832;-72
2022/10/29 05:56:34;;;;;;;;;11.80;11.80;;;;;;;;5174761;28;8815;-71
2022/10/29 05:59:05;;;;;;;;;9.60;9.20;;;;;;;;5184933;28;8786;-71
2022/10/29 06:01:36;;;;;;;;;17.60;17.60;;;;;;;;5201274;28;8784;-69
2022/10/29 06:04:08;;;;;;;;;4.20;4.20;;;;;;;;5193352;28;8817;-73
2022/10/29 06:06:39;;;;;;;;;11.40;10.60;;;;;;;;5202817;28;8805;-70
2022/10/29 06:09:11;;;;;;;;;18.80;18.80;;;;;;;;5198933;28;8801;-69
2022/10/29 06:11:42;;;;;;;;;18.80;18.20;;;;;;;;5181562;28;8791;-70
2022/10/29 06:14:32;;;;;;;;;15.40;15.20;;;;;;;;5186792;28;8770;-69
2022/10/29 06:17:22;;;;;;;;;14.80;14.80;;;;;;;;5180148;28;8882;-69
2022/10/29 06:19:53;;;;;;;;;15.20;15.20;;;;;;;;5159920;28;8809;-72
2022/10/29 06:22:25;;;;;;;;;18.20;18.20;;;;;;;;5199221;28;8925;-69
2022/10/29 06:24:56;;;;;;;;;13.40;13.40;;;;;;;;5185300;28;9995;-70
2022/10/29 06:27:27;;;;;;;;;15.20;15.20;;;;;;;;5186634;28;8894;-70
2022/10/29 06:29:58;;;;;;;;;84.25;64.75;;;;;;;;5169643;28;8908;-69
2022/10/29 06:32:29;;;;;;;;;24.20;24.20;;;;;;;;5187252;28;8802;-70
2022/10/29 06:35:00;;;;;;;;;23.00;23.00;;;;;;;;5222494;28;8778;-71
2022/10/29 06:37:36;;;;;;;;;18.20;18.20;;;;;;;;5203374;28;8821;-70
2022/10/29 06:40:08;;;;;;;;;17.40;16.60;;;;;;;;5185520;28;8797;-71
2022/10/29 06:42:39;;;;;;;;;20.20;19.40;;;;;;;;5169139;28;8803;-70
2022/10/29 06:45:30;;;;;;;;;10.40;10.40;;;;;;;;5187860;28;8785;-71
2022/10/29 06:48:03;;;;;;;;;11.60;11.60;;;;;;;;5168811;28;8789;-70
2022/10/29 06:50:35;;;;;;;;;10.80;10.80;;;;;;;;5189618;28;8795;-70
2022/10/29 06:53:08;;;;;;;;;5.00;5.00;;;;;;;;5194077;28;8802;-70
2022/10/29 06:55:59;;;;;;;;;7.00;7.00;;;;;;;;5183079;28;8794;-71
2022/10/29 06:58:30;;;;;;;;;9.60;9.60;;;;;;;;5183017;28;9542;-71
2022/10/29 07:01:19;;;;;;;;;10.60;10.60;;;;;;;;5180500;28;8776;-70
2022/10/29 07:03:51;;;;;;;;;10.60;10.00;;;;;;;;5165614;28;9526;-71
2022/10/29 07:06:22;;;;;;;;;8.80;8.20;;;;;;;;5181739;28;8987;-72
2022/10/29 07:08:54;;;;;;;;;5.00;5.00;;;;;;;;5172073;28;8790;-71
2022/10/29 07:11:25;;;;;;;;;8.40;8.40;;;;;;;;5185282;28;8793;-71
2022/10/29 07:13:57;;;;;;;;;14.00;14.00;;;;;;;;5201402;28;8797;-71
2022/10/29 07:16:28;;;;;;;;;224.00;171.50;;;;;;;;5188044;28;9031;-70
2022/10/29 07:18:59;;;;;;;;;16.20;15.40;;;;;;;;5181947;28;8809;-72
2022/10/29 07:21:31;;;;;;;;;11.20;11.20;;;;;;;;5186711;28;9510;-71
2022/10/29 07:24:02;;;;;;;;;12.20;11.60;;;;;;;;5180831;28;9507;-71
2022/10/29 07:26:34;;;;;;;;;20.80;19.80;;;;;;;;5164739;28;9561;-70
2022/10/29 07:29:05;;;;;;;;;12.60;12.60;;;;;;;;5180751;28;8800;-70
2022/10/29 07:31:37;;;;;;;;;7.00;7.00;;;;;;;;5175211;28;8820;-70
2022/10/29 07:34:26;;;;;;;;;12.20;12.20;;;;;;;;5183241;28;9642;-70
2022/10/29 07:36:58;;;;;;;;;7.20;6.00;;;;;;;;5204109;28;8989;-70
2022/10/29 07:39:48;;;;;;;;;10.60;10.60;;;;;;;;5205533;28;8829;-71
2022/10/29 07:42:38;;;;;;;;;8.40;8.40;;;;;;;;5187216;28;8829;-70
2022/10/29 07:45:09;;;;;;;;;4.60;4.60;;;;;;;;5202052;28;8862;-70
2022/10/29 07:48:03;;;;;;;;;10.00;10.00;;;;;;;;5186800;28;8807;-70
2022/10/29 07:50:35;;;;;;;;;8.00;8.00;;;;;;;;5195323;28;8782;-69
2022/10/29 07:53:06;;;;;;;;;8.60;8.00;;;;;;;;5204646;28;8909;-70
2022/10/29 07:55:38;;;;;;;;;10.00;10.00;;;;;;;;5173082;28;8820;-70
2022/10/29 07:58:12;;;;;;;;;12.00;12.00;;;;;;;;5180190;28;8839;-73
2022/10/29 08:00:43;;;;;;;;;13.20;13.20;;;;;;;;5164028;28;9522;-70
2022/10/29 08:03:14;;;;;;;;;13.80;13.80;;;;;;;;5180687;28;8800;-70
2022/10/29 08:05:48;;;;;;;;;15.00;15.00;;;;;;;;5181488;28;9602;-70
2022/10/29 08:08:19;;;;;;;;;8.60;7.80;;;;;;;;5201674;28;8814;-70
2022/10/29 08:11:08;;;;;;;;;7.60;7.60;;;;;;;;5186506;28;8832;-70
2022/10/29 08:13:39;;;;;;;;;7.80;7.80;;;;;;;;5168213;28;8774;-70
2022/10/29 08:16:29;;;;;;;;;77.60;59.20;;;;;;;;5220019;28;8822;-70
2022/10/29 08:19:00;;;;;;;;;10.20;10.20;;;;;;;;5221138;28;9547;-70
2022/10/29 08:21:50;;;;;;;;;12.20;12.20;;;;;;;;5196108;28;8800;-70
2022/10/29 08:24:21;;;;;;;;;12.00;12.00;;;;;;;;5200497;28;8793;-71
2022/10/29 08:26:52;;;;;;;;;14.60;14.60;;;;;;;;5200366;28;8789;-70
2022/10/29 08:29:41;;;;;;;;;13.00;12.40;;;;;;;;5200148;28;9512;-70
2022/10/29 08:32:12;;;;;;;;;14.25;12.50;;;;;;;;5187339;28;8798;-70
2022/10/29 08:34:43;;;;;;;;;7.80;7.80;;;;;;;;5175949;28;11729;-70
2022/10/29 08:37:14;;;;;;;;;11.75;11.75;;;;;;;;5169620;28;8951;-70
2022/10/29 08:40:03;;;;;;;;;11.60;11.60;;;;;;;;5175415;28;8788;-71
2022/10/29 08:43:10;;;;;;;;;13.20;11.80;;;;;;;;5199160;28;8793;-70
2022/10/29 08:45:46;;;;;;;;;8.00;8.00;;;;;;;;5193846;28;8785;-68
2022/10/29 08:48:20;;;;;;;;;12.00;12.00;;;;;;;;5203025;28;8814;-70
2022/10/29 08:51:04;;;;;;;;;11.40;11.40;;;;;;;;5219478;28;8861;-71
2022/10/29 08:53:48;;;;;;;;;16.80;16.80;;;;;;;;5203594;28;9544;-71
2022/10/29 08:56:31;;;;;;;;;8.60;8.60;;;;;;;;5167491;28;8789;-69
2022/10/29 08:59:02;;;;;;;;;21.60;21.40;;;;;;;;5183312;28;8936;-69
2022/10/29 09:01:34;;;;;;;;;11.40;11.40;;;;;;;;5200046;28;8782;-69
2022/10/29 09:04:13;;;;;;;;;10.40;9.80;;;;;;;;5168769;28;8807;-70
2022/10/29 09:07:21;;;;;;;;;10.80;10.80;;;;;;;;5199850;28;8782;-71
2022/10/29 09:10:16;;;;;;;;;10.00;10.00;;;;;;;;5179989;28;8853;-69
2022/10/29 09:13:05;;;;;;;;;11.40;11.40;;;;;;;;5179538;28;8792;-70
2022/10/29 09:15:40;;;;;;;;;5.60;5.20;;;;;;;;5167589;28;8976;-70
2022/10/29 09:18:19;;;;;;;;;7.40;7.40;;;;;;;;5179223;28;8836;-70
2022/10/29 09:20:50;;;;;;;;;95.20;75.00;;;;;;;;5179310;28;8800;-69
2022/10/29 09:23:30;;;;;;;;;16.50;15.75;;;;;;;;5180531;28;8780;-71
2022/10/29 09:26:02;;;;;;;;;12.40;12.40;;;;;;;;5179226;28;8806;-70
2022/10/29 09:28:51;;;;;;;;;11.80;11.80;;;;;;;;5191066;28;8939;-70
2022/10/29 09:31:36;;;;;;;;;7.00;6.60;;;;;;;;5207382;28;8779;-69
2022/10/29 09:34:12;;;;;;;;;7.60;7.60;;;;;;;;5214109;28;8857;-74
2022/10/29 09:36:47;;;;;;;;;7.20;7.20;;;;;;;;5180991;28;8780;-71
2022/10/29 09:39:25;;;;;;;;;6.20;6.20;;;;;;;;5180880;28;8835;-71
2022/10/29 09:41:57;;;;;;;;;10.80;10.80;;;;;;;;5181473;28;8880;-71
2022/10/29 09:44:34;;;;;;;;;7.40;7.40;;;;;;;;5181132;28;8816;-71
2022/10/29 09:47:11;;;;;;;;;9.60;9.60;;;;;;;;5168201;28;8797;-71
2022/10/29 09:49:42;;;;;;;;;14.20;14.20;;;;;;;;5180781;28;8792;-72
2022/10/29 09:52:19;;;;;;;;;8.25;8.25;;;;;;;;5180579;28;8802;-71
2022/10/29 09:55:20;;;;;;;;;9.00;9.00;;;;;;;;5205147;28;11428;-73
2022/10/29 09:57:51;;;;;;;;;4.60;4.60;;;;;;;;5183831;28;8841;-73
2022/10/29 10:00:24;;;;;;;;;8.00;8.00;;;;;;;;5193538;28;8818;-71
2022/10/29 10:03:01;;;;;;;;;10.20;10.20;;;;;;;;5202928;28;8798;-72
2022/10/29 10:05:33;;;;;;;;;25.20;24.60;;;;;;;;5201680;28;8789;-70
2022/10/29 10:08:05;;;;;;;;;22.20;22.00;;;;;;;;5184277;28;8842;-71
2022/10/29 10:10:50;;;;;;;;;11.20;11.20;;;;;;;;5168048;28;8797;-70
2022/10/29 10:13:25;;;;;;;;;9.60;9.60;;;;;;;;5191172;28;8821;-70
2022/10/29 10:15:57;;;;;;;;;11.40;11.40;;;;;;;;5168302;28;8792;-70
2022/10/29 10:18:31;;;;;;;;;10.40;10.00;;;;;;;;5163782;28;8844;-72
2022/10/29 10:21:10;;;;;;;;;7.20;7.20;;;;;;;;5191245;28;8811;-71
2022/10/29 10:23:41;;;;;;;;;10.20;9.20;;;;;;;;5163901;28;8820;-69
2022/10/29 10:26:24;;;;;;;;;6.75;6.25;;;;;;;;5181241;28;8838;-70
2022/10/29 10:29:26;;;;;;;;;10.60;10.60;;;;;;;;5177025;28;8821;-71
2022/10/29 10:31:57;;;;;;;;;5.40;5.40;;;;;;;;5180343;28;8830;-71
2022/10/29 10:34:31;;;;;;;;;10.60;10.40;;;;;;;;5183034;28;8810;-70
2022/10/29 10:37:08;;;;;;;;;10.20;10.20;;;;;;;;5204118;28;8834;-71
2022/10/29 10:39:43;;;;;;;;;9.40;9.40;;;;;;;;5220988;28;8802;-70
2022/10/29 10:42:14;;;;;;;;;7.60;7.60;;;;;;;;5220839;28;8802;-72
2022/10/29 10:45:01;;;;;;;;;15.25;11.25;;;;;;;;5187998;28;8782;-71
2022/10/29 10:47:35;;;;;;;;;10.00;10.00;;;;;;;;5216092;28;11530;-71
2022/10/29 10:50:19;;;;;;;;;147.40;113.40;;;;;;;;5167455;28;9551;-71
2022/10/29 10:52:53;;;;;;;;;23.20;23.20;;;;;;;;5206794;28;8882;-70
2022/10/29 10:55:47;;;;;;;;;12.80;12.80;;;;;;;;5206684;28;8811;-70
2022/10/29 10:58:24;;;;;;;;;26.40;26.00;;;;;;;;5203708;28;8973;-71
2022/10/29 11:01:03;;;;;;;;;16.00;16.00;;;;;;;;5218768;28;9560;-72
2022/10/29 11:03:38;;;;;;;;;17.00;17.00;;;;;;;;5221725;28;8933;-72
2022/10/29 11:06:13;;;;;;;;;15.40;15.40;;;;;;;;5218577;28;8794;-71
2022/10/29 11:08:57;;;;;;;;;14.40;13.40;;;;;;;;5208205;28;8783;-71
2022/10/29 11:11:34;;;;;;;;;14.40;14.40;;;;;;;;5203726;28;8880;-70
2022/10/29 11:14:17;;;;;;;;;12.20;12.20;;;;;;;;5200981;28;8857;-70
2022/10/29 11:16:51;;;;;;;;;12.00;12.00;;;;;;;;5183289;28;9273;-71
2022/10/29 11:19:22;;;;;;;;;15.60;15.60;;;;;;;;5217334;28;8916;-70
2022/10/29 11:21:53;;;;;;;;;14.75;14.75;;;;;;;;5211274;28;8793;-71
2022/10/29 11:24:42;;;;;;;;;11.60;11.60;;;;;;;;5191087;28;12158;-71
2022/10/29 11:27:46;;;;;;;;;11.50;11.50;;;;;;;;5183375;28;8777;-70
2022/10/29 11:30:17;;;;;;;;;13.40;13.40;;;;;;;;5218859;28;11464;-70
2022/10/29 11:32:58;;;;;;;;;14.20;13.00;;;;;;;;5198717;28;8877;-70
2022/10/29 11:35:38;;;;;;;;;9.40;7.40;;;;;;;;5181387;28;8797;-70
2022/10/29 11:38:22;;;;;;;;;12.60;11.80;;;;;;;;5200356;28;8886;-70
2022/10/29 11:41:03;;;;;;;;;10.40;10.00;;;;;;;;5166968;28;8794;-69
2022/10/29 11:43:34;;;;;;;;;11.80;11.80;;;;;;;;5166746;28;8786;-70
2022/10/29 11:46:10;;;;;;;;;16.50;16.50;;;;;;;;5162324;28;8784;-69
2022/10/29 11:49:00;;;;;;;;;11.40;11.40;;;;;;;;5180991;28;8789;-70
2022/10/29 11:51:50;;;;;;;;;25.40;25.00;;;;;;;;5199470;28;8781;-70
2022/10/29 11:54:24;;;;;;;;;14.40;14.40;;;;;;;;5192410;28;8801;-70
2022/10/29 11:57:18;;;;;;;;;17.20;16.40;;;;;;;;5165574;28;8827;-71
2022/10/29 12:00:12;;;;;;;;;23.60;23.00;;;;;;;;5199439;28;8822;-71
2022/10/29 12:03:02;;;;;;;;;12.20;11.60;;;;;;;;5203104;28;8923;-69
2022/10/29 12:05:35;;;;;;;;;9.80;8.40;;;;;;;;5199452;28;9520;-69
2022/10/29 12:08:25;;;;;;;;;6.00;6.00;;;;;;;;5198810;28;8801;-70
2022/10/29 12:10:56;;;;;;;;;6.40;6.40;;;;;;;;5166202;28;8774;-70
2022/10/29 12:13:33;;;;;;;;;9.00;9.00;;;;;;;;5181428;28;8832;-71
2022/10/29 12:16:23;;;;;;;;;15.40;15.00;;;;;;;;5177714;28;10187;-71
2022/10/29 12:19:00;;;;;;;;;29.00;28.60;;;;;;;;5182552;28;8885;-72
2022/10/29 12:21:52;;;;;;;;;10.00;10.00;;;;;;;;5215310;28;8820;-71
2022/10/29 12:24:32;;;;;;;;;20.20;19.40;;;;;;;;5198288;28;8769;-71
2022/10/29 12:27:21;;;;;;;;;10.80;10.80;;;;;;;;5200170;28;8797;-70
2022/10/29 12:29:52;;;;;;;;;10.00;10.00;;;;;;;;5184989;28;8824;-71
2022/10/29 12:32:29;;;;;;;;;14.50;14.50;;;;;;;;5177884;28;8889;-71
2022/10/29 12:35:30;;;;;;;;;2.00;2.00;;;;;;;;5162039;28;12348;-72
2022/10/29 12:38:07;;;;;;;;;14.60;14.60;;;;;;;;5165444;28;8854;-72
2022/10/29 12:40:41;;;;;;;;;7.00;7.00;;;;;;;;5162165;28;8836;-72
2022/10/29 12:43:17;;;;;;;;;10.00;10.00;;;;;;;;5191382;28;8775;-71
2022/10/29 12:45:52;;;;;;;;;6.20;6.20;;;;;;;;5186307;28;9521;-71
2022/10/29 12:48:27;;;;;;;;;9.80;9.60;;;;;;;;5218643;28;8859;-70
2022/10/29 12:51:02;;;;;;;;;7.20;7.20;;;;;;;;5202699;28;8794;-71
2022/10/29 12:53:40;;;;;;;;;7.80;7.80;;;;;;;;5202571;28;8850;-71
2022/10/29 12:56:12;;;;;;;;;7.20;7.00;;;;;;;;5184153;28;8899;-72
2022/10/29 12:58:47;;;;;;;;;9.20;9.20;;;;;;;;5218552;28;8834;-71
2022/10/29 13:01:24;;;;;;;;;15.80;15.20;;;;;;;;5211203;28;8813;-71
2022/10/29 13:03:55;;;;;;;;;6.40;6.40;;;;;;;;5182749;28;8942;-72
2022/10/29 13:06:41;;;;;;;;;9.00;9.00;;;;;;;;5186056;28;8920;-71
2022/10/29 13:09:20;;;;;;;;;10.20;9.40;;;;;;;;5181404;28;11617;-72
2022/10/29 13:12:10;;;;;;;;;11.60;11.60;;;;;;;;5171478;28;8816;-70
2022/10/29 13:14:41;;;;;;;;;5.00;5.00;;;;;;;;5185248;28;8793;-71
2022/10/29 13:17:22;;;;;;;;;6.75;6.75;;;;;;;;5201429;28;8868;-73
2022/10/29 13:19:58;;;;;;;;;7.00;7.00;;;;;;;;5195548;28;11413;-71
2022/10/29 13:22:32;;;;;;;;;5.20;5.00;;;;;;;;5190593;28;8848;-70
2022/10/29 13:25:21;;;;;;;;;12.80;11.20;;;;;;;;5164972;28;8788;-72
2022/10/29 13:27:52;;;;;;;;;23.40;22.20;;;;;;;;5181232;28;8796;-71
2022/10/29 13:30:24;;;;;;;;;41.40;38.40;;;;;;;;5176208;28;8909;-71
2022/10/29 13:32:55;;;;;;;;;21.20;20.80;;;;;;;;5191208;28;8934;-70
2022/10/29 13:35:26;;;;;;;;;15.50;15.00;;;;;;;;5164770;28;8906;-71
2022/10/29 13:38:11;;;;;;;;;11.00;10.40;;;;;;;;5164406;28;11587;-71
2022/10/29 13:40:55;;;;;;;;;14.00;13.00;;;;;;;;5165023;28;8801;-71
2022/10/29 13:43:27;;;;;;;;;9.20;9.20;;;;;;;;5221062;28;8842;-71
2022/10/29 13:46:06;;;;;;;;;11.00;11.00;;;;;;;;5223085;27;8771;-70
2022/10/29 13:48:39;;;;;;;;;11.60;11.60;;;;;;;;5221750;28;9571;-69
2022/10/29 13:51:33;;;;;;;;;12.00;11.60;;;;;;;;5207953;28;8791;-70
2022/10/29 13:54:14;;;;;;;;;30.80;28.60;;;;;;;;5184788;28;8812;-70
2022/10/29 13:56:49;;;;;;;;;31.80;31.00;;;;;;;;5167438;28;8882;-69
2022/10/29 13:59:24;;;;;;;;;16.40;16.20;;;;;;;;5204581;28;8883;-70
2022/10/29 14:02:09;;;;;;;;;17.80;17.00;;;;;;;;5189983;28;8792;-69
2022/10/29 14:04:41;;;;;;;;;12.20;12.20;;;;;;;;5182396;28;8804;-70
2022/10/29 14:07:15;;;;;;;;;17.00;17.00;;;;;;;;5182288;28;8811;-70
2022/10/29 14:09:50;;;;;;;;;22.20;20.60;;;;;;;;5178856;28;8817;-70
2022/10/29 14:12:26;;;;;;;;;12.20;12.20;;;;;;;;5205385;28;8828;-70
2022/10/29 14:15:17;;;;;;;;;13.20;10.20;;;;;;;;5188767;28;8789;-70
2022/10/29 14:17:48;;;;;;;;;12.00;12.00;;;;;;;;5185818;28;8853;-70
2022/10/29 14:20:19;;;;;;;;;11.00;11.00;;;;;;;;5202444;28;8817;-69
2022/10/29 14:23:08;;;;;;;;;14.20;14.20;;;;;;;;5188390;28;8805;-69
2022/10/29 14:25:39;;;;;;;;;14.00;14.00;;;;;;;;5184771;28;8804;-72
2022/10/29 14:28:24;;;;;;;;;11.40;11.40;;;;;;;;5180418;28;8815;-70
2022/10/29 14:31:15;;;;;;;;;22.20;22.20;;;;;;;;5181982;28;8780;-70
2022/10/29 14:33:54;;;;;;;;;29.00;29.00;;;;;;;;5150805;28;8804;-71
2022/10/29 14:36:24;;;;;;;;;19.60;19.60;;;;;;;;5181389;28;8853;-72
2022/10/29 14:39:04;;;;;;;;;15.50;14.50;;;;;;;;5205902;28;8799;-71
2022/10/29 14:41:37;;;;;;;;;10.60;10.20;;;;;;;;5223266;28;8778;-70
2022/10/29 14:44:14;;;;;;;;;10.80;10.20;;;;;;;;5189730;28;8817;-70
2022/10/29 14:47:04;;;;;;;;;15.40;15.40;;;;;;;;5189323;28;8779;-71
2022/10/29 14:49:39;;;;;;;;;12.40;12.40;;;;;;;;5189392;28;9611;-70
2022/10/29 14:52:24;;;;;;;;;11.40;11.40;;;;;;;;5182489;28;8819;-71
2022/10/29 14:55:01;;;;;;;;;11.40;11.00;;;;;;;;5197878;28;9630;-68
2022/10/29 14:57:56;;;;;;;;;11.00;11.00;;;;;;;;5181652;28;8823;-69
2022/10/29 15:00:29;;;;;;;;;12.20;12.20;;;;;;;;5202877;28;8805;-69
2022/10/29 15:03:00;;;;;;;;;10.80;10.80;;;;;;;;5204608;28;8814;-68
2022/10/29 15:05:32;;;;;;;;;8.80;8.40;;;;;;;;5199188;28;8992;-69
2022/10/29 15:08:04;;;;;;;;;6.00;6.00;;;;;;;;5201826;28;8861;-68
2022/10/29 15:10:46;;;;;;;;;85.00;72.40;;;;;;;;5190046;28;8791;-68
2022/10/29 15:13:22;;;;;;;;;13.40;13.40;;;;;;;;5175890;28;8796;-68
2022/10/29 15:15:53;;;;;;;;;14.40;14.40;;;;;;;;5188876;28;8790;-68
2022/10/29 15:18:24;;;;;;;;;12.50;12.50;;;;;;;;5203450;28;9474;-69
2022/10/29 15:20:56;;;;;;;;;14.00;12.60;;;;;;;;5203232;27;11661;-71
2022/10/29 15:23:54;;;;;;;;;9.80;9.80;;;;;;;;5183604;28;8785;-71
2022/10/29 15:26:25;;;;;;;;;5.80;5.80;;;;;;;;5188427;28;8824;-71
2022/10/29 15:28:56;;;;;;;;;32.00;31.25;;;;;;;;5171695;28;8819;-71
2022/10/29 15:31:30;;;;;;;;;31.00;30.40;;;;;;;;5178799;28;9604;-71
2022/10/29 15:34:09;;;;;;;;;34.00;34.00;;;;;;;;5162554;28;8861;-71
2022/10/29 15:37:12;;;;;;;;;31.20;30.20;;;;;;;;5165039;28;8812;-69
2022/10/29 15:39:55;;;;;;;;;20.20;18.40;;;;;;;;5191576;28;8961;-70